createdAt,value
2023-02-22T00:00:50.115Z,7.47
2023-02-22T00:03:24.980Z,8.55
2023-02-22T00:05:55.426Z,9.00
2023-02-22T00:08:26.050Z,7.75
2023-02-22T00:10:54.021Z,7.63
2023-02-22T00:13:23.085Z,8.50
2023-02-22T00:15:52.415Z,8.02
2023-02-22T00:18:20.946Z,8.60
2023-02-22T00:20:49.199Z,9.88
2023-02-22T00:23:20.097Z,11.10
2023-02-22T00:25:49.315Z,12.27
2023-02-22T00:28:19.013Z,10.65
2023-02-22T00:30:48.344Z,9.80
2023-02-22T00:33:17.982Z,10.13
2023-02-22T00:35:47.282Z,10.18
2023-02-22T00:38:18.253Z,10.13
2023-02-22T00:40:46.672Z,9.65
2023-02-22T00:43:15.480Z,9.60
2023-02-22T00:45:43.607Z,9.30
2023-02-22T00:48:12.361Z,8.57
2023-02-22T00:50:41.809Z,8.75
2023-02-22T00:53:10.477Z,8.70
2023-02-22T00:55:39.268Z,8.90
2023-02-22T00:58:08.196Z,9.10
2023-02-22T01:00:39.322Z,8.15
2023-02-22T01:03:08.237Z,8.00
2023-02-22T01:05:37.548Z,7.80
2023-02-22T01:08:09.026Z,9.13
2023-02-22T01:10:38.283Z,7.45
2023-02-22T01:13:09.325Z,9.20
2023-02-22T01:15:39.562Z,10.00
2023-02-22T01:18:08.059Z,9.32
2023-02-22T01:20:36.204Z,9.25
2023-02-22T01:23:08.145Z,11.40
2023-02-22T01:25:36.982Z,10.13
2023-02-22T01:28:07.494Z,8.05
2023-02-22T01:30:37.456Z,8.30
2023-02-22T01:33:08.442Z,8.60
2023-02-22T01:35:38.528Z,8.40
2023-02-22T01:38:08.603Z,8.10
2023-02-22T01:40:39.057Z,7.28
2023-02-22T01:43:18.488Z,8.35
2023-02-22T01:45:54.878Z,7.90
2023-02-22T01:48:29.351Z,8.07
2023-02-22T01:51:00.611Z,9.02
2023-02-22T01:53:34.427Z,8.98
2023-02-22T01:56:04.214Z,9.15
2023-02-22T01:58:35.103Z,9.13
2023-02-22T02:01:03.210Z,9.00
2023-02-22T02:03:34.769Z,8.88
2023-02-22T02:06:05.570Z,9.57
2023-02-22T02:08:42.544Z,9.75
2023-02-22T02:11:11.082Z,9.45
2023-02-22T02:13:39.678Z,9.05
2023-02-22T02:16:08.105Z,9.00
2023-02-22T02:18:36.413Z,9.77
2023-02-22T02:21:37.876Z,10.55
2023-02-22T02:24:53.362Z,10.77
2023-02-22T02:27:24.144Z,10.30
2023-02-22T02:30:29.272Z,11.52
2023-02-22T02:33:02.124Z,9.70
2023-02-22T02:35:39.355Z,9.23
2023-02-22T02:38:18.182Z,9.05
2023-02-22T02:40:50.562Z,9.23
2023-02-22T02:43:26.596Z,10.82
2023-02-22T02:46:00.723Z,9.63
2023-02-22T02:48:34.784Z,9.50
2023-02-22T02:51:06.952Z,10.43
2023-02-22T02:53:38.143Z,9.63
2023-02-22T02:56:07.681Z,9.38
2023-02-22T02:58:35.665Z,9.82
2023-02-22T03:01:05.571Z,10.40
2023-02-22T03:03:52.576Z,9.13
2023-02-22T03:06:52.057Z,10.05
2023-02-22T03:09:36.215Z,9.77
2023-02-22T03:12:13.925Z,9.68
2023-02-22T03:14:50.734Z,8.90
2023-02-22T03:17:25.065Z,11.27
2023-02-22T03:20:00.116Z,10.10
2023-02-22T03:22:32.724Z,10.07
2023-02-22T03:25:07.165Z,11.32
2023-02-22T03:27:43.514Z,8.02
2023-02-22T03:30:17.034Z,8.30
2023-02-22T03:32:49.855Z,10.10
2023-02-22T03:35:23.400Z,9.38
2023-02-22T03:37:56.114Z,9.82
2023-02-22T03:40:28.343Z,9.85
2023-02-22T03:43:03.098Z,9.15
2023-02-22T03:45:33.299Z,9.75
2023-02-22T03:48:06.405Z,9.70
2023-02-22T03:50:38.399Z,9.15
2023-02-22T03:53:07.514Z,9.40
2023-02-22T03:55:35.916Z,10.98
2023-02-22T03:58:08.016Z,9.95
2023-02-22T04:00:36.690Z,10.05
2023-02-22T04:03:05.377Z,9.40
2023-02-22T04:05:33.346Z,9.75
2023-02-22T04:08:02.711Z,9.35
2023-02-22T04:10:30.720Z,11.50
2023-02-22T04:12:58.946Z,9.20
2023-02-22T04:15:27.080Z,9.00
2023-02-22T04:17:55.136Z,8.82
2023-02-22T04:20:25.623Z,9.93
2023-02-22T04:22:54.589Z,8.88
2023-02-22T04:25:24.808Z,9.48
2023-02-22T04:27:52.920Z,9.90
2023-02-22T04:30:21.436Z,9.73
2023-02-22T04:32:49.454Z,10.68
2023-02-22T04:35:17.609Z,8.90
2023-02-22T04:37:45.644Z,10.57
2023-02-22T04:40:14.060Z,9.63
2023-02-22T04:42:43.858Z,9.90
2023-02-22T04:45:12.496Z,10.57
2023-02-22T04:47:40.646Z,9.98
2023-02-22T04:50:11.072Z,11.48
2023-02-22T04:52:39.084Z,10.38
2023-02-22T04:55:07.654Z,11.10
2023-02-22T04:57:35.578Z,9.88
2023-02-22T05:00:05.901Z,10.43
2023-02-22T05:02:33.932Z,9.40
2023-02-22T05:05:02.003Z,10.63
2023-02-22T05:07:30.025Z,9.55
2023-02-22T05:09:57.997Z,12.40
2023-02-22T05:12:28.353Z,8.88
2023-02-22T05:14:56.461Z,9.10
2023-02-22T05:17:25.744Z,10.35
2023-02-22T05:19:53.710Z,9.43
2023-02-22T05:22:21.658Z,8.80
2023-02-22T05:24:49.629Z,9.38
2023-02-22T05:27:17.546Z,8.88
2023-02-22T05:29:45.718Z,8.38
2023-02-22T05:32:13.818Z,9.18
2023-02-22T05:34:43.145Z,9.65
2023-02-22T05:37:11.100Z,10.07
2023-02-22T05:39:39.330Z,11.23
2023-02-22T05:42:07.337Z,11.60
2023-02-22T05:44:35.295Z,10.80
2023-02-22T05:47:03.255Z,11.85
2023-02-22T05:49:31.217Z,11.30
2023-02-22T05:52:00.643Z,10.52
2023-02-22T05:54:28.661Z,9.55
2023-02-22T05:56:56.633Z,10.50
2023-02-22T05:59:24.581Z,13.20
2023-02-22T06:01:52.560Z,9.40
2023-02-22T06:04:20.489Z,9.60
2023-02-22T06:06:48.466Z,7.85
2023-02-22T06:09:17.837Z,10.27
2023-02-22T06:11:45.835Z,8.57
2023-02-22T06:14:13.745Z,9.43
2023-02-22T06:16:41.792Z,9.45
2023-02-22T06:19:09.762Z,9.20
2023-02-22T06:21:37.709Z,8.70
2023-02-22T06:24:06.095Z,10.02
2023-02-22T06:26:36.144Z,9.35
2023-02-22T06:29:06.052Z,10.55
2023-02-22T06:31:34.207Z,10.65
2023-02-22T06:34:02.709Z,11.52
2023-02-22T06:36:31.634Z,10.50
2023-02-22T06:38:59.733Z,10.25
2023-02-22T06:41:27.753Z,11.18
2023-02-22T06:43:57.190Z,10.00
2023-02-22T06:46:25.214Z,9.68
2023-02-22T06:48:53.267Z,11.75
2023-02-22T06:51:22.071Z,11.60
2023-02-22T06:53:50.089Z,11.75
2023-02-22T06:56:18.177Z,11.50
2023-02-22T06:58:46.781Z,11.88
2023-02-22T07:01:16.872Z,11.63
2023-02-22T07:03:45.242Z,11.70
2023-02-22T07:06:13.295Z,11.60
2023-02-22T07:08:41.362Z,12.23
2023-02-22T07:11:10.294Z,13.57
2023-02-22T07:13:38.221Z,12.90
2023-02-22T07:16:06.865Z,12.13
2023-02-22T07:18:36.548Z,12.68
2023-02-22T07:21:04.690Z,12.82
2023-02-22T07:23:32.700Z,11.63
2023-02-22T07:26:01.164Z,14.00
2023-02-22T07:28:29.236Z,12.18
2023-02-22T07:30:57.208Z,12.52
2023-02-22T07:33:25.754Z,12.88
2023-02-22T07:35:55.178Z,14.88
2023-02-22T07:38:23.211Z,11.23
2023-02-22T07:40:51.125Z,11.27
2023-02-22T07:43:21.631Z,11.38
2023-02-22T07:45:52.385Z,12.00
2023-02-22T07:48:22.135Z,11.48
2023-02-22T07:50:50.270Z,12.93
2023-02-22T07:53:21.891Z,11.65
2023-02-22T07:55:51.275Z,12.20
2023-02-22T07:58:21.286Z,11.85
2023-02-22T08:00:49.331Z,11.88
2023-02-22T08:03:19.972Z,11.63
2023-02-22T08:05:50.109Z,12.60
2023-02-22T08:08:20.063Z,12.25
2023-02-22T08:10:49.232Z,11.70
2023-02-22T08:13:17.563Z,11.93
2023-02-22T08:15:47.295Z,10.88
2023-02-22T08:18:17.337Z,11.77
2023-02-22T08:20:47.667Z,13.10
2023-02-22T08:23:17.603Z,14.82
2023-02-22T08:25:47.103Z,14.73
2023-02-22T08:28:17.686Z,14.50
2023-02-22T08:30:45.791Z,18.30
2023-02-22T08:33:16.924Z,16.80
2023-02-22T08:35:45.121Z,16.73
2023-02-22T08:38:20.220Z,15.10
2023-02-22T08:40:50.448Z,13.90
2023-02-22T08:43:19.564Z,11.70
2023-02-22T08:48:51.494Z,12.52
2023-02-22T08:51:19.680Z,14.20
2023-02-22T08:53:47.631Z,12.27
2023-02-22T08:56:16.988Z,13.38
2023-02-22T08:58:45.222Z,12.30
2023-02-22T09:01:19.255Z,13.13
2023-02-22T09:03:50.090Z,13.73
2023-02-22T09:06:18.485Z,12.25
2023-02-22T09:08:46.583Z,14.27
2023-02-22T09:11:16.522Z,13.27
2023-02-22T09:13:44.752Z,11.75
2023-02-22T09:16:13.016Z,12.77
2023-02-22T09:18:44.389Z,12.05
2023-02-22T09:21:13.364Z,10.27
2023-02-22T09:23:41.580Z,11.35
2023-02-22T09:26:10.462Z,11.88
2023-02-22T09:28:39.929Z,12.43
2023-02-22T09:31:08.837Z,11.95
2023-02-22T09:33:36.909Z,12.32
2023-02-22T09:36:06.974Z,12.88
2023-02-22T09:38:35.036Z,11.38
2023-02-22T09:41:15.606Z,12.43
2023-02-22T09:43:50.538Z,11.57
2023-02-22T09:46:29.752Z,11.00
2023-02-22T09:49:03.584Z,11.27
2023-02-22T09:51:38.525Z,10.55
2023-02-22T09:54:17.677Z,10.95
2023-02-22T09:56:49.322Z,11.65
2023-02-22T09:59:24.412Z,10.60
2023-02-22T10:01:59.163Z,12.60
2023-02-22T10:04:41.447Z,12.07
2023-02-22T10:07:18.364Z,11.52
2023-02-22T10:09:48.693Z,10.23
2023-02-22T10:12:25.204Z,10.50
2023-02-22T10:15:27.577Z,11.60
2023-02-22T10:18:05.149Z,13.63
2023-02-22T10:20:45.952Z,12.30
2023-02-22T10:23:22.787Z,11.77
2023-02-22T10:25:55.835Z,11.45
2023-02-22T10:28:31.058Z,12.05
2023-02-22T10:31:05.313Z,13.10
2023-02-22T10:33:38.049Z,11.82
2023-02-22T10:36:07.762Z,12.65
2023-02-22T10:38:36.476Z,10.18
2023-02-22T10:41:20.274Z,13.32
2023-02-22T10:43:48.315Z,11.98
2023-02-22T10:46:22.655Z,13.50
2023-02-22T10:48:54.581Z,13.73
2023-02-22T10:51:22.700Z,14.68
2023-02-22T10:54:00.119Z,13.63
2023-02-22T10:56:29.421Z,14.40
2023-02-22T10:58:59.743Z,13.52
2023-02-22T11:01:37.214Z,12.75
2023-02-22T11:04:12.905Z,11.43
2023-02-22T11:06:42.742Z,11.38
2023-02-22T11:09:14.457Z,13.32
2023-02-22T11:11:45.980Z,10.85
2023-02-22T11:14:26.044Z,12.20
2023-02-22T11:17:07.885Z,11.10
2023-02-22T11:19:38.476Z,12.65
2023-02-22T11:22:14.814Z,11.30
2023-02-22T11:24:50.748Z,12.25
2023-02-22T11:27:31.722Z,10.55
2023-02-22T11:30:21.867Z,11.93
2023-02-22T11:32:55.948Z,12.35
2023-02-22T11:35:40.803Z,11.98
2023-02-22T11:38:17.453Z,12.88
2023-02-22T11:40:46.582Z,13.13
2023-02-22T11:43:17.760Z,12.57
2023-02-22T11:46:03.067Z,11.88
2023-02-22T11:48:40.550Z,11.23
2023-02-22T11:51:27.669Z,11.70
2023-02-22T11:54:25.492Z,11.32
2023-02-22T11:57:06.319Z,10.93
2023-02-22T11:59:44.492Z,11.60
2023-02-22T12:02:57.282Z,10.88
2023-02-22T12:05:40.731Z,13.52
2023-02-22T12:08:21.138Z,12.90
2023-02-22T12:11:03.559Z,11.55
2023-02-22T12:13:46.788Z,12.27
2023-02-22T12:16:22.841Z,11.57
2023-02-22T12:19:08.436Z,12.93
2023-02-22T12:21:41.925Z,12.13
2023-02-22T12:24:16.547Z,13.40
2023-02-22T12:26:49.209Z,10.40
2023-02-22T12:29:26.283Z,11.93
2023-02-22T12:32:01.170Z,12.75
2023-02-22T12:34:36.077Z,12.10
2023-02-22T12:37:16.244Z,11.68
2023-02-22T12:39:54.395Z,12.23
2023-02-22T12:42:31.651Z,10.40
2023-02-22T12:45:08.315Z,11.52
2023-02-22T12:47:43.831Z,12.55
2023-02-22T12:50:21.130Z,12.27
2023-02-22T12:52:57.775Z,11.35
2023-02-22T12:55:27.809Z,12.85
2023-02-22T12:58:02.960Z,12.68
2023-02-22T13:00:38.779Z,11.93
2023-02-22T13:03:30.300Z,10.98
2023-02-22T13:06:24.824Z,12.63
2023-02-22T13:09:05.562Z,12.25
2023-02-22T13:11:43.320Z,13.07
2023-02-22T13:14:31.798Z,12.38
2023-02-22T13:17:06.778Z,12.13
2023-02-22T13:19:45.005Z,12.27
2023-02-22T13:22:21.206Z,11.35
2023-02-22T13:25:02.813Z,11.00
2023-02-22T13:27:39.155Z,10.70
2023-02-22T13:30:16.559Z,10.55
2023-02-22T13:33:05.556Z,10.73
2023-02-22T13:35:48.922Z,12.32
2023-02-22T13:39:01.578Z,12.45
2023-02-22T13:41:59.545Z,11.35
2023-02-22T13:44:59.863Z,13.02
2023-02-22T13:47:57.806Z,14.20
2023-02-22T13:50:40.770Z,13.48
2023-02-22T13:53:15.015Z,14.48
2023-02-22T13:55:51.775Z,14.90
2023-02-22T13:58:22.270Z,14.43
2023-02-22T14:00:53.484Z,14.00
2023-02-22T14:03:41.904Z,13.73
2023-02-22T14:06:12.286Z,13.75
2023-02-22T14:08:42.142Z,13.25
2023-02-22T14:11:45.561Z,13.80
2023-02-22T14:14:19.209Z,12.98
2023-02-22T14:17:28.088Z,13.05
2023-02-22T14:20:31.126Z,13.05
2023-02-22T14:23:27.624Z,14.50
2023-02-22T14:25:56.199Z,12.75
2023-02-22T14:28:42.399Z,14.30
2023-02-22T14:31:29.493Z,14.35
2023-02-22T14:34:11.305Z,13.95
2023-02-22T14:36:55.118Z,14.30
2023-02-22T14:39:32.199Z,13.98
2023-02-22T14:42:06.499Z,13.88
2023-02-22T14:44:38.146Z,13.13
2023-02-22T14:47:15.213Z,14.77
2023-02-22T14:49:48.176Z,15.38
2023-02-22T14:52:24.338Z,13.75
2023-02-22T14:55:17.605Z,13.85
2023-02-22T14:57:59.726Z,13.00
2023-02-22T15:00:32.502Z,12.57
2023-02-22T15:03:02.289Z,14.20
2023-02-22T15:05:38.529Z,12.38
2023-02-22T15:08:09.690Z,12.40
2023-02-22T15:10:43.966Z,12.68
2023-02-22T15:13:18.881Z,13.35
2023-02-22T15:15:49.432Z,13.63
2023-02-22T15:18:29.555Z,14.18
2023-02-22T15:20:59.650Z,13.95
2023-02-22T15:23:33.417Z,14.00
2023-02-22T15:26:01.739Z,13.52
2023-02-22T15:28:32.232Z,12.20
2023-02-22T15:31:17.559Z,13.15
2023-02-22T15:33:47.354Z,13.88
2023-02-22T15:36:17.949Z,14.48
2023-02-22T15:38:51.290Z,14.48
2023-02-22T15:41:28.063Z,15.30
2023-02-22T15:44:17.697Z,15.52
2023-02-22T15:46:50.811Z,14.27
2023-02-22T15:49:24.394Z,15.02
2023-02-22T15:52:05.444Z,13.68
2023-02-22T15:54:42.229Z,14.93
2023-02-22T15:57:10.706Z,13.90
2023-02-22T15:59:44.997Z,15.63
2023-02-22T16:02:32.615Z,16.08
2023-02-22T16:05:06.914Z,17.50
2023-02-22T16:07:39.904Z,15.18
2023-02-22T16:10:10.437Z,14.90
2023-02-22T16:12:38.497Z,14.75
2023-02-22T16:15:18.115Z,16.05
2023-02-22T16:18:00.907Z,15.45
2023-02-22T16:20:34.468Z,14.13
2023-02-22T16:23:23.451Z,15.27
2023-02-22T16:26:04.181Z,16.23
2023-02-22T16:28:35.599Z,13.32
2023-02-22T16:31:04.366Z,16.88
2023-02-22T16:33:33.985Z,15.23
2023-02-22T16:36:09.221Z,16.23
2023-02-22T16:38:39.345Z,17.38
2023-02-22T16:41:08.439Z,17.20
2023-02-22T16:43:38.398Z,15.73
2023-02-22T16:46:07.524Z,15.07
2023-02-22T16:48:38.393Z,15.00
2023-02-22T16:51:21.389Z,15.93
2023-02-22T16:53:50.972Z,15.18
2023-02-22T16:56:22.225Z,17.02
2023-02-22T16:58:53.518Z,17.63
2023-02-22T17:01:23.447Z,16.52
2023-02-22T17:03:54.339Z,16.92
2023-02-22T17:06:25.287Z,15.57
2023-02-22T17:08:53.654Z,14.10
2023-02-22T17:11:22.318Z,16.38
2023-02-22T17:13:53.738Z,18.55
2023-02-22T17:16:22.302Z,15.68
2023-02-22T17:18:51.480Z,16.52
2023-02-22T17:21:19.506Z,16.75
2023-02-22T17:23:49.030Z,17.88
2023-02-22T17:26:21.158Z,20.08
2023-02-22T17:28:50.166Z,15.57
2023-02-22T17:31:23.819Z,15.48
2023-02-22T17:33:53.124Z,16.67
2023-02-22T17:36:25.218Z,16.48
2023-02-22T17:38:55.735Z,16.23
2023-02-22T17:41:27.709Z,16.63
2023-02-22T17:43:58.415Z,16.98
2023-02-22T17:46:30.771Z,17.02
2023-02-22T17:49:11.273Z,18.00
2023-02-22T17:51:42.630Z,18.92
2023-02-22T17:54:12.208Z,20.10
2023-02-22T17:56:41.442Z,20.50
2023-02-22T17:59:12.363Z,29.98
2023-02-22T18:01:40.470Z,28.05
2023-02-22T18:04:08.478Z,24.80
2023-02-22T18:06:38.260Z,21.13
2023-02-22T18:09:10.612Z,23.27
2023-02-22T18:11:42.484Z,20.50
2023-02-22T18:14:12.388Z,19.80
2023-02-22T18:16:41.581Z,20.23
2023-02-22T18:19:09.552Z,21.50
2023-02-22T18:21:38.717Z,20.08
2023-02-22T18:24:07.659Z,21.27
2023-02-22T18:26:35.757Z,20.95
2023-02-22T18:29:05.257Z,21.02
2023-02-22T18:31:33.280Z,19.55
2023-02-22T18:34:01.324Z,18.83
2023-02-22T18:36:29.438Z,20.98
2023-02-22T18:38:58.053Z,19.25
2023-02-22T18:41:26.484Z,18.83
2023-02-22T18:43:57.712Z,20.90
2023-02-22T18:46:27.857Z,20.13
2023-02-22T18:48:56.746Z,20.88
2023-02-22T18:51:26.092Z,21.83
2023-02-22T18:54:00.045Z,22.73
2023-02-22T18:56:30.885Z,21.63
2023-02-22T18:59:00.864Z,19.83
2023-02-22T19:01:33.779Z,18.73
2023-02-22T19:04:01.795Z,17.90
2023-02-22T19:06:29.842Z,18.83
2023-02-22T19:09:01.606Z,20.17
2023-02-22T19:11:29.680Z,18.30
2023-02-22T19:13:59.670Z,18.70
2023-02-22T19:16:28.463Z,18.75
2023-02-22T19:18:58.716Z,18.60
2023-02-22T19:21:30.114Z,16.33
2023-02-22T19:23:58.356Z,17.95
2023-02-22T19:26:29.094Z,17.60
2023-02-22T19:28:58.615Z,19.80
2023-02-22T19:31:31.142Z,18.33
2023-02-22T19:34:03.763Z,17.88
2023-02-22T19:36:31.940Z,18.00
2023-02-22T19:39:05.020Z,19.30
2023-02-22T19:41:33.081Z,17.13
2023-02-22T19:44:02.866Z,16.80
2023-02-22T19:46:32.016Z,18.45
2023-02-22T19:49:02.687Z,20.08
2023-02-22T19:51:31.883Z,19.42
2023-02-22T19:54:02.558Z,18.38
2023-02-22T19:56:32.360Z,19.45
2023-02-22T19:59:06.289Z,20.20
2023-02-22T20:01:38.199Z,19.48
2023-02-22T20:04:10.365Z,18.92
2023-02-22T20:06:44.016Z,21.02
2023-02-22T20:09:15.296Z,20.85
2023-02-22T20:11:43.337Z,19.98
2023-02-22T20:14:18.747Z,19.85
2023-02-22T20:16:47.320Z,21.67
2023-02-22T20:19:18.258Z,20.95
2023-02-22T20:21:46.385Z,18.77
2023-02-22T20:24:20.452Z,21.17
2023-02-22T20:26:50.219Z,20.85
2023-02-22T20:29:19.136Z,22.00
2023-02-22T20:31:53.722Z,19.60
2023-02-22T20:34:25.915Z,19.10
2023-02-22T20:36:54.459Z,20.20
2023-02-22T20:39:22.813Z,18.67
2023-02-22T20:41:55.332Z,23.42
2023-02-22T20:44:23.447Z,23.02
2023-02-22T20:46:51.848Z,21.73
2023-02-22T20:49:23.640Z,23.55
2023-02-22T20:51:54.630Z,22.63
2023-02-22T20:54:23.228Z,20.77
2023-02-22T20:56:53.250Z,21.38
2023-02-22T20:59:21.905Z,21.30
2023-02-22T21:01:50.515Z,22.65
2023-02-22T21:04:19.354Z,20.60
2023-02-22T21:06:49.467Z,20.67
2023-02-22T21:09:20.282Z,21.58
2023-02-22T21:11:49.141Z,22.05
2023-02-22T21:14:19.986Z,21.58
2023-02-22T21:16:49.687Z,22.10
2023-02-22T21:19:25.627Z,21.17
2023-02-22T21:21:57.262Z,20.52
2023-02-22T21:24:27.378Z,20.40
2023-02-22T21:26:55.809Z,19.27
2023-02-22T21:29:23.840Z,21.88
2023-02-22T21:31:54.273Z,20.50
2023-02-22T21:34:22.576Z,20.85
2023-02-22T21:36:52.518Z,20.58
2023-02-22T21:39:22.795Z,19.98
2023-02-22T21:41:52.714Z,21.10
2023-02-22T21:44:22.149Z,21.55
2023-02-22T21:46:50.284Z,21.45
2023-02-22T21:49:22.374Z,20.58
2023-02-22T21:51:51.698Z,22.33
2023-02-22T21:54:21.756Z,20.65
2023-02-22T21:56:50.883Z,20.48
2023-02-22T21:59:20.744Z,20.40
2023-02-22T22:01:50.430Z,19.38
2023-02-22T22:04:20.697Z,20.88
2023-02-22T22:06:50.128Z,21.58
2023-02-22T22:09:23.637Z,21.50
2023-02-22T22:12:01.503Z,20.10
2023-02-22T22:14:29.554Z,19.33
2023-02-22T22:16:58.875Z,20.95
2023-02-22T22:19:27.304Z,20.60
2023-02-22T22:21:55.510Z,20.42
2023-02-22T22:24:24.916Z,19.10
2023-02-22T22:26:55.489Z,20.08
2023-02-22T22:29:26.662Z,18.85
2023-02-22T22:31:54.977Z,19.08
2023-02-22T22:34:24.465Z,20.30
2023-02-22T22:36:52.779Z,19.60
2023-02-22T22:39:21.211Z,19.33
2023-02-22T22:41:49.609Z,18.50
2023-02-22T22:44:22.431Z,19.75
2023-02-22T22:46:53.835Z,19.50
2023-02-22T22:49:23.720Z,20.27
2023-02-22T22:51:53.749Z,21.73
2023-02-22T22:54:23.024Z,24.70
2023-02-22T22:56:51.422Z,23.42
2023-02-22T22:59:21.745Z,22.75
2023-02-22T23:01:52.132Z,24.23
2023-02-22T23:04:21.535Z,22.92
2023-02-22T23:06:52.301Z,21.95
2023-02-22T23:09:23.306Z,23.02
2023-02-22T23:11:53.483Z,21.70
2023-02-22T23:14:25.078Z,21.08
2023-02-22T23:16:56.634Z,22.30
2023-02-22T23:19:24.677Z,22.08
2023-02-22T23:21:53.087Z,23.42
2023-02-22T23:24:21.706Z,25.58
2023-02-22T23:26:50.849Z,23.85
2023-02-22T23:29:20.288Z,22.67
2023-02-22T23:31:50.858Z,25.48
2023-02-22T23:34:21.493Z,23.20
2023-02-22T23:36:54.256Z,21.95
2023-02-22T23:39:23.880Z,18.23
2023-02-22T23:41:53.009Z,19.27
2023-02-22T23:44:21.836Z,19.65
2023-02-22T23:46:55.931Z,20.00
2023-02-22T23:49:26.914Z,19.95
2023-02-22T23:51:55.712Z,17.98
2023-02-22T23:54:24.839Z,20.52
2023-02-22T23:56:56.999Z,19.55
2023-02-22T23:59:26.319Z,17.83
